This is the latest recevied weather packets stored in our database for station/object M0JUI-1. If no packets are shown the sender has not sent any weather packets the latest 1 day(s).
| Time | Temp. | Humidity | Pressure | Rain* | Wind** | Luminosity | Snow |
|---|---|---|---|---|---|---|---|
| 1778079772 | 11.67° C | 83% | 1014.8 hPa | 0 mm | - | 141 W/m² | - |
| 1778079159 | 12.22° C | 80% | 1014.8 hPa | 0 mm | - | 116 W/m² | - |
| 1778077359 | 11.67° C | 78% | 1014.9 hPa | 0 mm | - | 220 W/m² | - |
| 1778076759 | 12.22° C | 77% | 1015 hPa | 0 mm | - | 196 W/m² | - |
| 1778075559 | 11.67° C | 78% | 1015 hPa | 0 mm | - | 166 W/m² | - |
| 1778075264 | 12.22° C | 78% | 1015.1 hPa | 0 mm | - | 191 W/m² | - |
| 1778073759 | 12.78° C | 74% | 1014.9 hPa | 0 mm | - | 269 W/m² | - |
| 1778073460 | 12.78° C | 75% | 1015 hPa | 0 mm | - | 749 W/m² | - |
| 1778072859 | 11.67° C | 78% | 1015.2 hPa | 0 mm | - | 226 W/m² | - |
| 1778072559 | 11.67° C | 80% | 1015 hPa | 0 mm | - | 239 W/m² | - |
| 1778071659 | 12.22° C | 80% | 1015.2 hPa | 0 mm | - | 690 W/m² | - |
| 1778071048 | 11.67° C | 80% | 1015.1 hPa | 0 mm | - | 208 W/m² | - |
| 1778070748 | 12.78° C | 77% | 1015.2 hPa | 0 mm | - | 246 W/m² | - |
| 1778070135 | 12.22° C | 79% | 1015.2 hPa | 0 mm | - | 740 W/m² | - |
| 1778069835 | 11.67° C | 82% | 1015.1 hPa | 0 mm | - | 729 W/m² | - |
| 1778068311 | 11.11° C | 83% | 1015.3 hPa | 0 mm | - | 219 W/m² | - |
| 1778067400 | 12.22° C | 84% | 1015.4 hPa | 0 mm | - | 242 W/m² | - |
| 1778067099 | 11.67° C | 84% | 1015.4 hPa | 0 mm | - | 348 W/m² | - |
| 1778065888 | 11.11° C | 90% | 1015.4 hPa | 0 mm | - | 189 W/m² | - |
| 1778065588 | 11.11° C | 89% | 1015.6 hPa | 0 mm | - | 235 W/m² | - |
| 1778064087 | 11.67° C | 90% | 1015.5 hPa | 0 mm | - | 635 W/m² | - |
| 1778063476 | 11.67° C | 92% | 1015.6 hPa | 0 mm | - | 744 W/m² | - |
| 1778063175 | 11.11° C | 91% | 1015.7 hPa | 0 mm | - | 742 W/m² | - |
| 1778062575 | 10° C | 99% | 1015.6 hPa | 0 mm | - | 711 W/m² | - |
| 1778061975 | 9.44° C | 99% | 1015.6 hPa | 0 mm | - | 732 W/m² | - |
* Rain latest hour (hover to see other rain measurements)
** Current wind speed in m/s (hover to see current wind gust speed)